Terminal Aerodrome Forecast
Issued by NWS

Home | Current Version | Previous Version | Text Only | Print | Product List | Glossary On
Versions: 1 2 3 4 5 6 7 8 9 10 11 12 13 14 15
000
FTUS43 KJKL 261303 AAA
TAFSJS
TAF AMD
KSJS 261303Z 2613/2712 00000KT 4SM BR BKN002
     FM261400 00000KT P6SM FEW005 SCT250
     FM261600 VRB03KT P6SM VCTS SCT050CB BKN090
     FM270000 00000KT P6SM FEW050 BKN250
     FM270500 00000KT 3SM BR BKN025=

USA.gov is the U.S. government's official web portal to all federal, state and local government web resources and services.